sensor_id;sensor_type;location;lat;lon;timestamp;pressure;altitude;pressure_sealevel;temperature;humidity
66681;BME280;53575;51.366;12.350;2023-05-24T00:01:14;100696.88;;;9.66;79.27
66681;BME280;53575;51.366;12.350;2023-05-24T00:03:40;100703.78;;;9.61;79.33
66681;BME280;53575;51.366;12.350;2023-05-24T00:06:06;100698.63;;;9.80;79.49
66681;BME280;53575;51.366;12.350;2023-05-24T00:08:32;100700.41;;;9.88;78.21
66681;BME280;53575;51.366;12.350;2023-05-24T00:10:58;100707.41;;;9.97;77.72
66681;BME280;53575;51.366;12.350;2023-05-24T00:13:24;100704.75;;;9.91;77.77
66681;BME280;53575;51.366;12.350;2023-05-24T00:15:49;100696.06;;;9.81;78.51
66681;BME280;53575;51.366;12.350;2023-05-24T00:18:15;100699.53;;;9.91;78.06
66681;BME280;53575;51.366;12.350;2023-05-24T00:20:42;100709.97;;;9.77;78.72
66681;BME280;53575;51.366;12.350;2023-05-24T00:23:08;100706.44;;;9.76;78.69
66681;BME280;53575;51.366;12.350;2023-05-24T00:25:33;100714.31;;;9.86;78.46
66681;BME280;53575;51.366;12.350;2023-05-24T00:27:59;100710.81;;;9.79;78.27
66681;BME280;53575;51.366;12.350;2023-05-24T00:30:24;100700.41;;;9.81;78.26
66681;BME280;53575;51.366;12.350;2023-05-24T00:32:50;100697.75;;;9.70;78.65
66681;BME280;53575;51.366;12.350;2023-05-24T00:35:16;100703.84;;;9.73;78.80
66681;BME280;53575;51.366;12.350;2023-05-24T00:37:41;100703.88;;;9.83;78.34
66681;BME280;53575;51.366;12.350;2023-05-24T00:40:10;100705.59;;;9.74;78.43
66681;BME280;53575;51.366;12.350;2023-05-24T00:42:35;100705.56;;;9.76;78.50
66681;BME280;53575;51.366;12.350;2023-05-24T00:45:00;100699.44;;;9.65;79.19
66681;BME280;53575;51.366;12.350;2023-05-24T00:47:26;100704.69;;;9.66;79.96
66681;BME280;53575;51.366;12.350;2023-05-24T00:49:51;100705.56;;;9.62;79.16
66681;BME280;53575;51.366;12.350;2023-05-24T00:52:17;100707.31;;;9.72;78.83
66681;BME280;53575;51.366;12.350;2023-05-24T00:54:42;100709.03;;;9.66;79.04
66681;BME280;53575;51.366;12.350;2023-05-24T00:57:08;100709.81;;;9.48;79.69
66681;BME280;53575;51.366;12.350;2023-05-24T00:59:34;100710.72;;;9.51;79.46
66681;BME280;53575;51.366;12.350;2023-05-24T01:02:00;100720.31;;;9.54;79.47
66681;BME280;53575;51.366;12.350;2023-05-24T01:04:26;100716.81;;;9.50;79.44
66681;BME280;53575;51.366;12.350;2023-05-24T01:07:14;100713.28;;;9.44;79.66
66681;BME280;53575;51.366;12.350;2023-05-24T01:12:30;100702.81;;;9.38;78.96
66681;BME280;53575;51.366;12.350;2023-05-24T01:15:06;100708.00;;;9.33;79.32
66681;BME280;53575;51.366;12.350;2023-05-24T01:20:20;100716.81;;;9.52;78.23
66681;BME280;53575;51.366;12.350;2023-05-24T01:23:13;100718.53;;;9.47;77.77
66681;BME280;53575;51.366;12.350;2023-05-24T01:26:02;100709.81;;;9.43;78.60
66681;BME280;53575;51.366;12.350;2023-05-24T01:28:32;100708.94;;;9.46;77.60
66681;BME280;53575;51.366;12.350;2023-05-24T01:30:58;100710.63;;;9.38;77.61
66681;BME280;53575;51.366;12.350;2023-05-24T01:33:25;100713.22;;;9.32;77.69
66681;BME280;53575;51.366;12.350;2023-05-24T01:35:50;100718.41;;;9.27;76.89
66681;BME280;53575;51.366;12.350;2023-05-24T01:38:15;100720.97;;;9.19;77.16
66681;BME280;53575;51.366;12.350;2023-05-24T01:40:41;100728.81;;;9.22;77.49
66681;BME280;53575;51.366;12.350;2023-05-24T01:43:47;100722.75;;;9.26;77.07
66681;BME280;53575;51.366;12.350;2023-05-24T01:51:15;100732.31;;;9.24;77.13
66681;BME280;53575;51.366;12.350;2023-05-24T01:53:44;100719.28;;;9.26;77.26
66681;BME280;53575;51.366;12.350;2023-05-24T01:56:12;100727.09;;;9.26;77.05
66681;BME280;53575;51.366;12.350;2023-05-24T01:58:43;100721.81;;;9.15;76.98
66681;BME280;53575;51.366;12.350;2023-05-24T02:01:10;100723.59;;;9.22;76.38
66681;BME280;53575;51.366;12.350;2023-05-24T02:03:37;100720.03;;;9.11;77.38
66681;BME280;53575;51.366;12.350;2023-05-24T02:06:03;100720.09;;;9.16;76.98
66681;BME280;53575;51.366;12.350;2023-05-24T02:08:29;100716.53;;;9.08;77.42
66681;BME280;53575;51.366;12.350;2023-05-24T02:10:54;100718.41;;;9.25;77.19
66681;BME280;53575;51.366;12.350;2023-05-24T02:13:19;100727.13;;;9.27;76.51
66681;BME280;53575;51.366;12.350;2023-05-24T02:15:45;100725.38;;;9.23;76.77
66681;BME280;53575;51.366;12.350;2023-05-24T02:18:12;100722.63;;;9.05;77.37
66681;BME280;53575;51.366;12.350;2023-05-24T02:20:38;100720.09;;;9.17;77.05
66681;BME280;53575;51.366;12.350;2023-05-24T02:23:05;100724.31;;;8.97;77.89
66681;BME280;53575;51.366;12.350;2023-05-24T02:25:31;100727.00;;;9.11;77.51
66681;BME280;53575;51.366;12.350;2023-05-24T02:27:57;100721.81;;;9.15;76.99
66681;BME280;53575;51.366;12.350;2023-05-24T02:30:23;100722.66;;;9.10;77.03
66681;BME280;53575;51.366;12.350;2023-05-24T02:32:49;100721.78;;;9.11;77.42
66681;BME280;53575;51.366;12.350;2023-05-24T02:35:14;100718.31;;;9.10;77.44
66681;BME280;53575;51.366;12.350;2023-05-24T02:37:40;100723.53;;;9.10;77.09
66681;BME280;53575;51.366;12.350;2023-05-24T02:40:06;100716.53;;;9.03;77.25
66681;BME280;53575;51.366;12.350;2023-05-24T02:42:32;100717.38;;;9.02;76.84
66681;BME280;53575;51.366;12.350;2023-05-24T02:44:57;100714.84;;;9.08;76.83
66681;BME280;53575;51.366;12.350;2023-05-24T02:47:22;100707.84;;;9.07;76.78
66681;BME280;53575;51.366;12.350;2023-05-24T02:49:48;100712.19;;;9.02;77.00
66681;BME280;53575;51.366;12.350;2023-05-24T02:52:13;100705.28;;;9.10;76.91
66681;BME280;53575;51.366;12.350;2023-05-24T02:54:40;100712.25;;;9.13;76.60
66681;BME280;53575;51.366;12.350;2023-05-24T02:57:05;100707.91;;;9.13;76.42
66681;BME280;53575;51.366;12.350;2023-05-24T02:59:31;100713.06;;;9.01;76.43
66681;BME280;53575;51.366;12.350;2023-05-24T03:01:58;100704.25;;;8.87;76.85
66681;BME280;53575;51.366;12.350;2023-05-24T03:04:23;100698.16;;;8.83;77.32
66681;BME280;53575;51.366;12.350;2023-05-24T03:06:48;100706.84;;;8.84;77.37
66681;BME280;53575;51.366;12.350;2023-05-24T03:09:14;100700.72;;;8.80;77.35
66681;BME280;53575;51.366;12.350;2023-05-24T03:11:41;100702.47;;;8.81;77.50
66681;BME280;53575;51.366;12.350;2023-05-24T03:14:06;100695.47;;;8.77;77.26
66681;BME280;53575;51.366;12.350;2023-05-24T03:16:34;100697.25;;;8.78;77.68
66681;BME280;53575;51.366;12.350;2023-05-24T03:18:59;100693.75;;;8.76;77.28
66681;BME280;53575;51.366;12.350;2023-05-24T03:21:25;100701.47;;;8.64;77.76
66681;BME280;53575;51.366;12.350;2023-05-24T03:23:51;100689.25;;;8.58;77.90
66681;BME280;53575;51.366;12.350;2023-05-24T03:26:16;100690.09;;;8.54;78.25
66681;BME280;53575;51.366;12.350;2023-05-24T03:28:43;100689.25;;;8.58;78.96
66681;BME280;53575;51.366;12.350;2023-05-24T03:31:09;100694.56;;;8.69;78.38
66681;BME280;53575;51.366;12.350;2023-05-24T03:33:35;100690.16;;;8.59;78.59
66681;BME280;53575;51.366;12.350;2023-05-24T03:36:00;100683.31;;;8.74;77.53
66681;BME280;53575;51.366;12.350;2023-05-24T03:38:26;100691.16;;;8.74;77.80
66681;BME280;53575;51.366;12.350;2023-05-24T03:40:52;100694.59;;;8.70;77.55
66681;BME280;53575;51.366;12.350;2023-05-24T03:43:17;100691.94;;;8.63;78.18
66681;BME280;53575;51.366;12.350;2023-05-24T03:45:43;100699.78;;;8.73;78.21
66681;BME280;53575;51.366;12.350;2023-05-24T03:48:08;100705.84;;;8.69;78.31
66681;BME280;53575;51.366;12.350;2023-05-24T03:50:34;100703.28;;;8.71;78.18
66681;BME280;53575;51.366;12.350;2023-05-24T03:52:59;100707.66;;;8.75;78.38
66681;BME280;53575;51.366;12.350;2023-05-24T03:55:24;100714.59;;;8.76;78.38
66681;BME280;53575;51.366;12.350;2023-05-24T03:57:50;100708.56;;;8.85;77.91
66681;BME280;53575;51.366;12.350;2023-05-24T04:00:16;100712.94;;;8.89;78.23
66681;BME280;53575;51.366;12.350;2023-05-24T04:02:41;100722.44;;;8.79;78.31
66681;BME280;53575;51.366;12.350;2023-05-24T04:05:09;100719.81;;;8.77;79.05
66681;BME280;53575;51.366;12.350;2023-05-24T04:07:35;100722.50;;;8.87;78.67
66681;BME280;53575;51.366;12.350;2023-05-24T04:10:03;100723.25;;;8.73;78.90
66681;BME280;53575;51.366;12.350;2023-05-24T04:12:29;100722.53;;;8.90;78.35
66681;BME280;53575;51.366;12.350;2023-05-24T04:14:55;100728.59;;;8.90;78.53
66681;BME280;53575;51.366;12.350;2023-05-24T04:17:20;100721.69;;;8.94;78.17
66681;BME280;53575;51.366;12.350;2023-05-24T04:19:49;100733.00;;;8.97;78.26
66681;BME280;53575;51.366;12.350;2023-05-24T04:22:14;100734.81;;;9.05;78.16
66681;BME280;53575;51.366;12.350;2023-05-24T04:24:41;100741.78;;;9.10;78.07
66681;BME280;53575;51.366;12.350;2023-05-24T04:27:07;100741.72;;;9.02;78.29
66681;BME280;53575;51.366;12.350;2023-05-24T04:29:34;100749.50;;;8.98;78.71
66681;BME280;53575;51.366;12.350;2023-05-24T04:31:59;100744.34;;;9.01;78.96
66681;BME280;53575;51.366;12.350;2023-05-24T04:34:25;100748.66;;;8.99;78.54
66681;BME280;53575;51.366;12.350;2023-05-24T04:36:50;100740.84;;;9.02;79.35
66681;BME280;53575;51.366;12.350;2023-05-24T04:39:17;100745.22;;;9.06;79.22
66681;BME280;53575;51.366;12.350;2023-05-24T04:41:44;100746.19;;;9.22;78.43
66681;BME280;53575;51.366;12.350;2023-05-24T04:44:09;100749.63;;;9.15;79.18
66681;BME280;53575;51.366;12.350;2023-05-24T04:46:35;100748.66;;;9.02;78.94
66681;BME280;53575;51.366;12.350;2023-05-24T04:49:00;100758.28;;;9.09;79.59
66681;BME280;53575;51.366;12.350;2023-05-24T04:51:26;100748.69;;;9.05;79.36
66681;BME280;53575;51.366;12.350;2023-05-24T04:53:52;100759.22;;;9.16;79.06
66681;BME280;53575;51.366;12.350;2023-05-24T04:56:17;100762.75;;;9.28;77.89
66681;BME280;53575;51.366;12.350;2023-05-24T04:58:43;100763.66;;;9.38;77.32
66681;BME280;53575;51.366;12.350;2023-05-24T05:01:09;100763.69;;;9.41;76.93
66681;BME280;53575;51.366;12.350;2023-05-24T05:03:34;100754.13;;;9.40;76.57
66681;BME280;53575;51.366;12.350;2023-05-24T05:06:00;100758.34;;;9.18;76.42
66681;BME280;53575;51.366;12.350;2023-05-24T05:08:25;100759.19;;;9.14;76.84
66681;BME280;53575;51.366;12.350;2023-05-24T05:10:51;100761.03;;;9.29;76.73
66681;BME280;53575;51.366;12.350;2023-05-24T05:13:16;100763.75;;;9.49;75.46
66681;BME280;53575;51.366;12.350;2023-05-24T05:15:42;100763.63;;;9.31;76.63
66681;BME280;53575;51.366;12.350;2023-05-24T05:18:07;100761.84;;;9.26;75.70
66681;BME280;53575;51.366;12.350;2023-05-24T05:20:33;100773.19;;;9.28;76.01
66681;BME280;53575;51.366;12.350;2023-05-24T05:22:58;100766.22;;;9.26;74.84
66681;BME280;53575;51.366;12.350;2023-05-24T05:25:24;100764.59;;;9.48;74.26
66681;BME280;53575;51.366;12.350;2023-05-24T05:27:49;100779.38;;;9.43;73.07
66681;BME280;53575;51.366;12.350;2023-05-24T05:30:15;100781.09;;;9.45;73.10
66681;BME280;53575;51.366;12.350;2023-05-24T05:32:40;100786.41;;;9.61;73.08
66681;BME280;53575;51.366;12.350;2023-05-24T05:35:06;100781.13;;;9.50;72.67
66681;BME280;53575;51.366;12.350;2023-05-24T05:37:32;100788.94;;;9.50;73.41
66681;BME280;53575;51.366;12.350;2023-05-24T05:39:57;100794.28;;;9.68;72.84
66681;BME280;53575;51.366;12.350;2023-05-24T05:42:24;100787.28;;;9.61;72.75
66681;BME280;53575;51.366;12.350;2023-05-24T05:44:49;100779.53;;;9.80;71.84
66681;BME280;53575;51.366;12.350;2023-05-24T05:47:16;100777.91;;;10.00;71.55
66681;BME280;53575;51.366;12.350;2023-05-24T05:49:42;100775.34;;;10.20;71.61
66681;BME280;53575;51.366;12.350;2023-05-24T05:52:07;100777.06;;;10.15;69.95
66681;BME280;53575;51.366;12.350;2023-05-24T05:54:32;100774.50;;;10.19;70.91
66681;BME280;53575;51.366;12.350;2023-05-24T05:56:58;100771.94;;;10.32;69.93
66681;BME280;53575;51.366;12.350;2023-05-24T05:59:24;100776.31;;;10.48;68.52
66681;BME280;53575;51.366;12.350;2023-05-24T06:01:49;100773.69;;;10.40;68.54
66681;BME280;53575;51.366;12.350;2023-05-24T06:04:15;100772.72;;;10.12;68.84
66681;BME280;53575;51.366;12.350;2023-05-24T06:06:41;100775.44;;;10.44;67.92
66681;BME280;53575;51.366;12.350;2023-05-24T06:09:07;100771.06;;;10.37;67.44
66681;BME280;53575;51.366;12.350;2023-05-24T06:11:32;100767.63;;;10.46;68.14
66681;BME280;53575;51.366;12.350;2023-05-24T06:13:58;100775.44;;;10.57;67.67
66681;BME280;53575;51.366;12.350;2023-05-24T06:16:23;100771.97;;;10.62;66.38
66681;BME280;53575;51.366;12.350;2023-05-24T06:18:48;100778.06;;;10.46;66.18
66681;BME280;53575;51.366;12.350;2023-05-24T06:21:14;100777.19;;;10.56;66.41
66681;BME280;53575;51.366;12.350;2023-05-24T06:23:40;100779.84;;;10.68;66.62
66681;BME280;53575;51.366;12.350;2023-05-24T06:26:07;100779.84;;;10.84;65.56
66681;BME280;53575;51.366;12.350;2023-05-24T06:28:34;100795.53;;;11.01;64.42
66681;BME280;53575;51.366;12.350;2023-05-24T06:30:59;100791.16;;;10.92;64.30
66681;BME280;53575;51.366;12.350;2023-05-24T06:33:25;100793.75;;;10.95;64.25
66681;BME280;53575;51.366;12.350;2023-05-24T06:35:52;100795.53;;;10.96;64.42
66681;BME280;53575;51.366;12.350;2023-05-24T06:38:17;100794.66;;;11.03;63.94
66681;BME280;53575;51.366;12.350;2023-05-24T06:40:42;100799.88;;;11.08;63.41
66681;BME280;53575;51.366;12.350;2023-05-24T06:43:08;100798.13;;;10.82;64.52
66681;BME280;53575;51.366;12.350;2023-05-24T06:45:33;100800.78;;;10.99;64.48
66681;BME280;53575;51.366;12.350;2023-05-24T06:47:59;100802.50;;;11.15;64.72
66681;BME280;53575;51.366;12.350;2023-05-24T06:50:24;100799.88;;;10.98;64.48
66681;BME280;53575;51.366;12.350;2023-05-24T06:52:50;100810.34;;;11.02;64.22
66681;BME280;53575;51.366;12.350;2023-05-24T06:55:15;100808.59;;;11.23;64.29
66681;BME280;53575;51.366;12.350;2023-05-24T06:57:40;100810.34;;;11.02;65.38
66681;BME280;53575;51.366;12.350;2023-05-24T07:00:07;100812.06;;;11.03;67.32
66681;BME280;53575;51.366;12.350;2023-05-24T07:02:36;100818.16;;;11.25;65.79
66681;BME280;53575;51.366;12.350;2023-05-24T07:05:03;100820.78;;;11.28;65.98
66681;BME280;53575;51.366;12.350;2023-05-24T07:07:28;100822.53;;;11.19;66.63
66681;BME280;53575;51.366;12.350;2023-05-24T07:09:53;100814.69;;;11.22;67.01
66681;BME280;53575;51.366;12.350;2023-05-24T07:12:19;100828.63;;;11.29;66.78
66681;BME280;53575;51.366;12.350;2023-05-24T07:14:45;100824.25;;;11.40;67.07
66681;BME280;53575;51.366;12.350;2023-05-24T07:17:10;100823.38;;;11.43;66.76
66681;BME280;53575;51.366;12.350;2023-05-24T07:19:36;100816.38;;;11.60;66.97
66681;BME280;53575;51.366;12.350;2023-05-24T07:22:01;100812.88;;;11.60;66.53
66681;BME280;53575;51.366;12.350;2023-05-24T07:24:27;100814.59;;;11.70;66.56
66681;BME280;53575;51.366;12.350;2023-05-24T07:26:52;100815.41;;;12.04;62.98
66681;BME280;53575;51.366;12.350;2023-05-24T07:29:18;100818.03;;;12.03;61.86
66681;BME280;53575;51.366;12.350;2023-05-24T07:31:44;100808.47;;;11.88;60.62
66681;BME280;53575;51.366;12.350;2023-05-24T07:34:09;100804.13;;;11.87;60.44
66681;BME280;53575;51.366;12.350;2023-05-24T07:36:35;100819.84;;;11.84;64.00
66681;BME280;53575;51.366;12.350;2023-05-24T07:39:01;100815.47;;;11.87;63.99
66681;BME280;53575;51.366;12.350;2023-05-24T07:41:28;100812.84;;;11.77;65.34
66681;BME280;53575;51.366;12.350;2023-05-24T07:43:54;100817.28;;;11.53;65.65
66681;BME280;53575;51.366;12.350;2023-05-24T07:46:19;100817.28;;;11.32;65.74
66681;BME280;53575;51.366;12.350;2023-05-24T07:48:45;100815.56;;;11.41;66.16
66681;BME280;53575;51.366;12.350;2023-05-24T07:51:11;100821.63;;;11.48;65.95
66681;BME280;53575;51.366;12.350;2023-05-24T07:53:36;100826.00;;;11.47;66.06
66681;BME280;53575;51.366;12.350;2023-05-24T07:56:02;100826.00;;;11.51;66.85
66681;BME280;53575;51.366;12.350;2023-05-24T07:58:28;100820.78;;;11.28;66.91
66681;BME280;53575;51.366;12.350;2023-05-24T08:00:53;100818.13;;;11.47;65.27
66681;BME280;53575;51.366;12.350;2023-05-24T08:03:19;100826.00;;;11.49;64.87
66681;BME280;53575;51.366;12.350;2023-05-24T08:05:44;100821.59;;;11.63;65.28
66681;BME280;53575;51.366;12.350;2023-05-24T08:08:10;100822.44;;;11.78;64.64
66681;BME280;53575;51.366;12.350;2023-05-24T08:10:35;100828.53;;;11.83;64.05
66681;BME280;53575;51.366;12.350;2023-05-24T08:13:01;100823.28;;;12.03;63.50
66681;BME280;53575;51.366;12.350;2023-05-24T08:15:27;100825.81;;;12.21;63.89
66681;BME280;53575;51.366;12.350;2023-05-24T08:17:53;100819.72;;;12.17;64.24
66681;BME280;53575;51.366;12.350;2023-05-24T08:20:18;100819.56;;;12.45;63.62
66681;BME280;53575;51.366;12.350;2023-05-24T08:22:45;100815.91;;;12.69;64.06
66681;BME280;53575;51.366;12.350;2023-05-24T08:25:12;100819.25;;;12.94;63.03
66681;BME280;53575;51.366;12.350;2023-05-24T08:27:38;100812.28;;;12.90;61.86
66681;BME280;53575;51.366;12.350;2023-05-24T08:30:04;100828.16;;;12.72;60.79
66681;BME280;53575;51.366;12.350;2023-05-24T08:32:30;100820.38;;;12.59;61.67
66681;BME280;53575;51.366;12.350;2023-05-24T08:34:56;100809.66;;;12.85;61.41
66681;BME280;53575;51.366;12.350;2023-05-24T08:37:21;100820.22;;;12.79;60.77
66681;BME280;53575;51.366;12.350;2023-05-24T08:39:47;100815.72;;;12.95;59.73
66681;BME280;53575;51.366;12.350;2023-05-24T08:42:14;100817.25;;;13.24;59.40
66681;BME280;53575;51.366;12.350;2023-05-24T08:45:06;100820.72;;;13.32;57.59
66681;BME280;53575;51.366;12.350;2023-05-24T08:47:35;100820.75;;;13.23;56.99
66681;BME280;53575;51.366;12.350;2023-05-24T08:50:02;100822.53;;;13.19;59.03
66681;BME280;53575;51.366;12.350;2023-05-24T08:52:29;100817.22;;;13.27;59.21
66681;BME280;53575;51.366;12.350;2023-05-24T08:54:57;100821.63;;;13.23;58.59
66681;BME280;53575;51.366;12.350;2023-05-24T08:57:25;100826.94;;;13.12;58.50
66681;BME280;53575;51.366;12.350;2023-05-24T08:59:51;100819.91;;;13.16;58.44
66681;BME280;53575;51.366;12.350;2023-05-24T09:02:20;100824.13;;;13.40;57.93
66681;BME280;53575;51.366;12.350;2023-05-24T09:04:48;100827.75;;;13.22;58.24
66681;BME280;53575;51.366;12.350;2023-05-24T09:07:17;100830.41;;;13.17;57.75
66681;BME280;53575;51.366;12.350;2023-05-24T09:10:03;100827.66;;;13.36;58.50
66681;BME280;53575;51.366;12.350;2023-05-24T09:12:30;100833.63;;;13.52;57.20
66681;BME280;53575;51.366;12.350;2023-05-24T09:15:00;100828.50;;;13.39;57.34
66681;BME280;53575;51.366;12.350;2023-05-24T09:17:26;100844.31;;;13.33;57.39
66681;BME280;53575;51.366;12.350;2023-05-24T09:19:52;100835.66;;;13.16;57.11
66681;BME280;53575;51.366;12.350;2023-05-24T09:22:18;100840.00;;;13.22;57.82
66681;BME280;53575;51.366;12.350;2023-05-24T09:24:51;100836.50;;;13.20;58.58
66681;BME280;53575;51.366;12.350;2023-05-24T09:27:20;100840.88;;;13.25;59.42
66681;BME280;53575;51.366;12.350;2023-05-24T09:29:47;100840.88;;;13.22;60.02
66681;BME280;53575;51.366;12.350;2023-05-24T09:32:18;100845.25;;;13.26;58.96
66681;BME280;53575;51.366;12.350;2023-05-24T09:34:49;100843.09;;;13.68;58.50
66681;BME280;53575;51.366;12.350;2023-05-24T09:37:18;100844.97;;;13.58;58.78
66681;BME280;53575;51.366;12.350;2023-05-24T09:39:45;100850.31;;;13.46;58.58
66681;BME280;53575;51.366;12.350;2023-05-24T09:42:18;100842.72;;;13.08;60.96
66681;BME280;53575;51.366;12.350;2023-05-24T09:44:49;100841.81;;;13.13;58.04
66681;BME280;53575;51.366;12.350;2023-05-24T09:47:27;100843.50;;;13.22;53.47
66681;BME280;53575;51.366;12.350;2023-05-24T09:49:53;100844.34;;;13.27;53.62
66681;BME280;53575;51.366;12.350;2023-05-24T09:52:19;100839.78;;;13.49;53.09
66681;BME280;53575;51.366;12.350;2023-05-24T09:54:45;100836.31;;;13.47;50.54
66681;BME280;53575;51.366;12.350;2023-05-24T09:57:14;100837.72;;;13.79;49.30
66681;BME280;53575;51.366;12.350;2023-05-24T09:59:40;100840.84;;;14.11;49.51
66681;BME280;53575;51.366;12.350;2023-05-24T10:02:08;100845.00;;;14.31;49.75
66681;BME280;53575;51.366;12.350;2023-05-24T10:04:37;100855.84;;;14.00;50.39
66681;BME280;53575;51.366;12.350;2023-05-24T10:07:04;100847.06;;;14.06;51.64
66681;BME280;53575;51.366;12.350;2023-05-24T10:09:30;100848.13;;;13.89;55.53
66681;BME280;53575;51.366;12.350;2023-05-24T10:12:06;100852.59;;;13.80;56.34
66681;BME280;53575;51.366;12.350;2023-05-24T10:14:35;100854.63;;;13.53;56.33
66681;BME280;53575;51.366;12.350;2023-05-24T10:17:07;100856.50;;;13.37;57.43
66681;BME280;53575;51.366;12.350;2023-05-24T10:19:33;100856.09;;;13.82;56.40
66681;BME280;53575;51.366;12.350;2023-05-24T10:22:00;100858.41;;;14.08;53.34
66681;BME280;53575;51.366;12.350;2023-05-24T10:24:38;100858.38;;;14.12;53.94
66681;BME280;53575;51.366;12.350;2023-05-24T10:27:08;100866.09;;;14.25;53.48
66681;BME280;53575;51.366;12.350;2023-05-24T10:29:47;100850.84;;;14.54;52.99
66681;BME280;53575;51.366;12.350;2023-05-24T10:32:18;100855.59;;;14.88;53.21
66681;BME280;53575;51.366;12.350;2023-05-24T10:34:45;100861.22;;;14.63;56.44
66681;BME280;53575;51.366;12.350;2023-05-24T10:37:11;100858.31;;;14.83;56.04
66681;BME280;53575;51.366;12.350;2023-05-24T10:39:36;100861.84;;;14.82;55.10
66681;BME280;53575;51.366;12.350;2023-05-24T10:42:05;100866.63;;;14.54;55.51
66681;BME280;53575;51.366;12.350;2023-05-24T10:44:31;100872.81;;;14.50;56.05
66681;BME280;53575;51.366;12.350;2023-05-24T10:47:12;100874.63;;;14.42;54.36
66681;BME280;53575;51.366;12.350;2023-05-24T10:49:46;100867.56;;;14.47;53.15
66681;BME280;53575;51.366;12.350;2023-05-24T10:52:12;100875.41;;;14.52;55.75
66681;BME280;53575;51.366;12.350;2023-05-24T10:54:38;100874.13;;;14.80;54.61
66681;BME280;53575;51.366;12.350;2023-05-24T10:57:05;100873.69;;;14.49;55.34
66681;BME280;53575;51.366;12.350;2023-05-24T10:59:33;100875.06;;;14.78;55.51
66681;BME280;53575;51.366;12.350;2023-05-24T11:02:05;100873.03;;;14.97;55.58
66681;BME280;53575;51.366;12.350;2023-05-24T11:04:36;100873.09;;;14.92;56.23
66681;BME280;53575;51.366;12.350;2023-05-24T11:07:04;100872.41;;;14.79;56.96
66681;BME280;53575;51.366;12.350;2023-05-24T11:09:39;100881.25;;;14.72;57.00
66681;BME280;53575;51.366;12.350;2023-05-24T11:12:13;100878.53;;;14.80;55.22
66681;BME280;53575;51.366;12.350;2023-05-24T11:14:39;100885.25;;;14.99;54.74
66681;BME280;53575;51.366;12.350;2023-05-24T11:17:06;100885.41;;;14.90;54.95
66681;BME280;53575;51.366;12.350;2023-05-24T11:19:45;100872.69;;;15.18;52.60
66681;BME280;53575;51.366;12.350;2023-05-24T11:22:13;100878.59;;;15.34;52.07
66681;BME280;53575;51.366;12.350;2023-05-24T11:24:40;100879.41;;;14.79;50.62
66681;BME280;53575;51.366;12.350;2023-05-24T11:27:06;100875.19;;;14.69;51.16
66681;BME280;53575;51.366;12.350;2023-05-24T11:29:32;100874.63;;;15.05;49.31
66681;BME280;53575;51.366;12.350;2023-05-24T11:32:04;100860.28;;;15.25;49.69
66681;BME280;53575;51.366;12.350;2023-05-24T11:34:30;100860.44;;;15.16;48.80
66681;BME280;53575;51.366;12.350;2023-05-24T11:36:57;100860.63;;;15.57;48.56
66681;BME280;53575;51.366;12.350;2023-05-24T11:39:28;100863.31;;;16.01;46.41
66681;BME280;53575;51.366;12.350;2023-05-24T11:41:53;100861.16;;;16.21;46.39
66681;BME280;53575;51.366;12.350;2023-05-24T11:44:19;100864.38;;;16.36;46.23
66681;BME280;53575;51.366;12.350;2023-05-24T11:46:45;100855.31;;;16.49;45.60
66681;BME280;53575;51.366;12.350;2023-05-24T11:49:15;100857.69;;;16.61;46.51
66681;BME280;53575;51.366;12.350;2023-05-24T11:51:41;100860.81;;;16.38;46.51
66681;BME280;53575;51.366;12.350;2023-05-24T11:54:07;100856.78;;;16.20;47.83
66681;BME280;53575;51.366;12.350;2023-05-24T11:56:32;100852.75;;;16.44;49.33
66681;BME280;53575;51.366;12.350;2023-05-24T11:59:07;100858.81;;;16.07;50.33
66681;BME280;53575;51.366;12.350;2023-05-24T12:01:33;100863.44;;;15.95;50.73
66681;BME280;53575;51.366;12.350;2023-05-24T12:03:58;100856.78;;;15.75;50.46
66681;BME280;53575;51.366;12.350;2023-05-24T12:06:33;100865.06;;;15.54;50.81
66681;BME280;53575;51.366;12.350;2023-05-24T12:08:59;100855.75;;;15.84;49.44
66681;BME280;53575;51.366;12.350;2023-05-24T12:11:24;100865.66;;;16.16;48.59
66681;BME280;53575;51.366;12.350;2023-05-24T12:13:50;100846.59;;;16.44;48.63
66681;BME280;53575;51.366;12.350;2023-05-24T12:16:15;100860.06;;;16.72;48.58
66681;BME280;53575;51.366;12.350;2023-05-24T12:18:42;100858.59;;;16.60;49.70
66681;BME280;53575;51.366;12.350;2023-05-24T12:21:09;100867.97;;;16.31;49.69
66681;BME280;53575;51.366;12.350;2023-05-24T12:23:36;100869.66;;;16.36;49.24
66681;BME280;53575;51.366;12.350;2023-05-24T12:26:02;100873.25;;;15.87;50.97
66681;BME280;53575;51.366;12.350;2023-05-24T12:28:33;100872.16;;;15.98;51.51
66681;BME280;53575;51.366;12.350;2023-05-24T12:31:03;100867.84;;;15.96;52.06
66681;BME280;53575;51.366;12.350;2023-05-24T12:33:30;100859.97;;;15.93;51.85
66681;BME280;53575;51.366;12.350;2023-05-24T12:35:56;100859.22;;;15.86;52.05
66681;BME280;53575;51.366;12.350;2023-05-24T12:38:23;100866.56;;;16.15;47.58
66681;BME280;53575;51.366;12.350;2023-05-24T12:40:52;100858.59;;;16.58;47.49
66681;BME280;53575;51.366;12.350;2023-05-24T12:43:19;100857.13;;;17.23;44.76
66681;BME280;53575;51.366;12.350;2023-05-24T12:45:45;100860.69;;;17.22;42.97
66681;BME280;53575;51.366;12.350;2023-05-24T12:48:11;100850.38;;;17.11;44.54
66681;BME280;53575;51.366;12.350;2023-05-24T12:50:36;100854.16;;;17.35;44.69
66681;BME280;53575;51.366;12.350;2023-05-24T12:53:01;100850.56;;;18.05;43.06
66681;BME280;53575;51.366;12.350;2023-05-24T12:55:27;100843.50;;;18.64;42.53